Time;durP1;ratioP1;P1;durP2;ratioP2;P2;SDS_P1;SDS_P2;PMS_P1;PMS_P2;Temp;Humidity;BMP_temperature;BMP_pressure;BME280_temperature;BME280_humidity;BME280_pressure;Samples;Min_cycle;Max_cycle;Signal;HPM_P1;HPM_P2
2022/01/29 00:00:18;;;;;;;6.38;1.98;;;;;;;;;;5048308;28;20044;-68
2022/01/29 00:02:44;;;;;;;7.63;2.20;;;;;;;;;;5048751;28;20048;-68
2022/01/29 00:05:11;;;;;;;3.22;1.52;;;;;;;;;;5048315;28;20049;-69
2022/01/29 00:07:43;;;;;;;5.93;2.20;;;;;;;;;;5048665;28;20057;-68
2022/01/29 00:10:13;;;;;;;5.57;1.98;;;;;;;;;;5048710;28;20053;-69
2022/01/29 00:12:39;;;;;;;4.60;2.33;;;;;;;;;;5048262;28;20049;-68
2022/01/29 00:15:06;;;;;;;6.85;2.70;;;;;;;;;;5048102;28;20521;-68
2022/01/29 00:17:32;;;;;;;6.00;2.10;;;;;;;;;;5047118;28;20045;-68
2022/01/29 00:19:58;;;;;;;5.68;2.08;;;;;;;;;;5047541;28;20041;-68
2022/01/29 00:22:24;;;;;;;3.58;1.85;;;;;;;;;;5048253;28;20150;-68
2022/01/29 00:24:50;;;;;;;5.53;2.30;;;;;;;;;;5048376;28;20098;-68
2022/01/29 00:27:18;;;;;;;5.20;2.05;;;;;;;;;;5048306;28;20477;-68
2022/01/29 00:29:44;;;;;;;6.15;1.98;;;;;;;;;;5046732;28;20533;-68
2022/01/29 00:32:11;;;;;;;4.20;2.45;;;;;;;;;;5047908;28;20609;-67
2022/01/29 00:34:38;;;;;;;4.25;2.17;;;;;;;;;;5047957;28;20056;-67
2022/01/29 00:37:04;;;;;;;4.10;1.63;;;;;;;;;;5047913;28;20106;-68
2022/01/29 00:39:30;;;;;;;3.95;1.77;;;;;;;;;;5047922;28;20394;-67
2022/01/29 00:41:56;;;;;;;7.57;2.30;;;;;;;;;;5046034;28;20483;-69
2022/01/29 00:44:22;;;;;;;5.60;2.17;;;;;;;;;;5047780;28;20517;-69
2022/01/29 00:46:48;;;;;;;5.43;1.70;;;;;;;;;;5047390;28;20503;-69
2022/01/29 00:49:15;;;;;;;5.65;2.10;;;;;;;;;;5047284;28;20037;-69
2022/01/29 00:51:41;;;;;;;5.72;2.05;;;;;;;;;;5047337;28;20076;-69
2022/01/29 00:54:07;;;;;;;1.98;1.23;;;;;;;;;;5047556;28;20052;-68
2022/01/29 00:56:33;;;;;;;6.30;2.40;;;;;;;;;;5046734;28;20041;-68
2022/01/29 00:58:59;;;;;;;7.80;1.63;;;;;;;;;;5047953;28;20490;-68
2022/01/29 01:01:26;;;;;;;5.38;2.00;;;;;;;;;;5046930;28;20067;-68
2022/01/29 01:03:52;;;;;;;4.28;1.60;;;;;;;;;;5045725;28;20088;-68
2022/01/29 01:06:18;;;;;;;4.43;1.67;;;;;;;;;;5047567;28;20136;-68
2022/01/29 01:08:44;;;;;;;5.68;1.95;;;;;;;;;;5047586;28;20056;-69
2022/01/29 01:11:10;;;;;;;3.92;1.98;;;;;;;;;;5047007;28;20052;-68
2022/01/29 01:13:36;;;;;;;12.63;1.88;;;;;;;;;;5047600;28;20049;-68
2022/01/29 01:16:03;;;;;;;3.75;1.80;;;;;;;;;;5047778;28;20422;-68
2022/01/29 01:18:29;;;;;;;4.85;1.67;;;;;;;;;;5047477;28;20048;-68
2022/01/29 01:20:55;;;;;;;5.10;2.13;;;;;;;;;;5045544;28;20490;-68
2022/01/29 01:23:21;;;;;;;4.88;2.13;;;;;;;;;;5047360;28;20090;-68
2022/01/29 01:25:48;;;;;;;3.50;1.70;;;;;;;;;;5047329;28;20411;-68
2022/01/29 01:28:14;;;;;;;2.83;1.67;;;;;;;;;;5047623;28;20049;-68
2022/01/29 01:30:40;;;;;;;4.60;1.90;;;;;;;;;;5046329;28;20049;-68
2022/01/29 01:33:06;;;;;;;4.60;1.90;;;;;;;;;;5046854;28;20371;-69
2022/01/29 01:35:38;;;;;;;5.43;1.80;;;;;;;;;;5047279;28;20048;-68
2022/01/29 01:38:14;;;;;;;3.72;1.60;;;;;;;;;;5046049;28;20053;-68
2022/01/29 01:40:43;;;;;;;4.75;2.00;;;;;;;;;;5046916;28;20122;-68
2022/01/29 01:43:09;;;;;;;5.13;1.83;;;;;;;;;;5045855;28;20503;-68
2022/01/29 01:45:35;;;;;;;3.70;1.50;;;;;;;;;;5047306;28;20107;-68
2022/01/29 01:48:04;;;;;;;2.97;1.33;;;;;;;;;;5047086;28;20053;-68
2022/01/29 01:50:31;;;;;;;5.47;1.60;;;;;;;;;;5029233;28;20041;-68
2022/01/29 01:52:58;;;;;;;4.00;1.90;;;;;;;;;;5047316;28;20502;-68
2022/01/29 01:55:24;;;;;;;4.07;1.77;;;;;;;;;;5046884;28;20041;-68
2022/01/29 01:57:50;;;;;;;7.07;1.77;;;;;;;;;;5047147;28;20071;-68
2022/01/29 02:00:16;;;;;;;4.22;1.55;;;;;;;;;;5047176;28;20045;-68
2022/01/29 02:02:43;;;;;;;2.60;1.58;;;;;;;;;;5047146;28;20048;-68
2022/01/29 02:05:09;;;;;;;4.40;1.80;;;;;;;;;;5047151;28;20391;-68
2022/01/29 02:07:35;;;;;;;3.13;1.48;;;;;;;;;;5046564;28;20045;-68
2022/01/29 02:10:02;;;;;;;2.47;1.55;;;;;;;;;;5047061;28;20048;-68
2022/01/29 02:12:29;;;;;;;4.65;1.90;;;;;;;;;;5046945;28;20048;-68
2022/01/29 02:14:59;;;;;;;5.18;1.70;;;;;;;;;;5046775;28;20049;-68
2022/01/29 02:17:25;;;;;;;5.82;2.00;;;;;;;;;;5050581;28;20506;-68
2022/01/29 02:19:51;;;;;;;4.25;1.77;;;;;;;;;;5048893;28;20049;-68
2022/01/29 02:22:17;;;;;;;3.63;1.75;;;;;;;;;;5050614;28;20055;-68
2022/01/29 02:24:43;;;;;;;6.22;2.17;;;;;;;;;;5050498;28;20056;-69
2022/01/29 02:27:09;;;;;;;4.00;1.70;;;;;;;;;;5050618;28;20055;-70
2022/01/29 02:29:36;;;;;;;5.82;1.50;;;;;;;;;;5050145;28;20040;-70
2022/01/29 02:32:02;;;;;;;5.97;2.10;;;;;;;;;;5050032;28;20096;-68
2022/01/29 02:34:30;;;;;;;5.13;1.70;;;;;;;;;;5050404;28;20592;-69
2022/01/29 02:36:56;;;;;;;4.72;1.48;;;;;;;;;;5050207;28;20075;-69
2022/01/29 02:39:23;;;;;;;4.95;1.60;;;;;;;;;;5050094;28;20052;-70
2022/01/29 02:41:50;;;;;;;8.40;2.20;;;;;;;;;;5050045;28;20052;-69
2022/01/29 02:44:20;;;;;;;2.88;1.30;;;;;;;;;;5050286;28;20045;-69
2022/01/29 02:46:54;;;;;;;5.50;1.65;;;;;;;;;;5050304;28;20041;-69
2022/01/29 02:49:22;;;;;;;3.97;1.67;;;;;;;;;;5049689;28;20053;-69
2022/01/29 02:52:06;;;;;;;5.63;1.80;;;;;;;;;;5050365;28;20048;-69
2022/01/29 02:54:34;;;;;;;4.60;1.50;;;;;;;;;;5049902;28;20118;-69
2022/01/29 02:57:00;;;;;;;5.68;1.75;;;;;;;;;;5049727;28;20151;-68
2022/01/29 02:59:26;;;;;;;5.68;1.85;;;;;;;;;;5048405;28;20495;-68
2022/01/29 03:01:52;;;;;;;4.75;1.60;;;;;;;;;;5049760;28;20083;-69
2022/01/29 03:04:18;;;;;;;10.50;1.98;;;;;;;;;;5049098;28;20166;-67
2022/01/29 03:06:44;;;;;;;7.80;1.90;;;;;;;;;;5048451;28;20447;-68
2022/01/29 03:09:11;;;;;;;7.82;2.03;;;;;;;;;;5049520;28;20081;-68
2022/01/29 03:11:37;;;;;;;4.97;1.40;;;;;;;;;;5049711;28;20481;-68
2022/01/29 03:14:03;;;;;;;5.70;2.25;;;;;;;;;;5048010;28;20160;-67
2022/01/29 03:16:29;;;;;;;6.15;1.70;;;;;;;;;;5048323;28;20136;-67
2022/01/29 03:18:55;;;;;;;7.78;1.80;;;;;;;;;;5049628;28;20045;-68
2022/01/29 03:21:21;;;;;;;5.78;1.85;;;;;;;;;;5049484;28;20116;-68
2022/01/29 03:23:47;;;;;;;11.82;1.80;;;;;;;;;;5049266;28;20594;-68
2022/01/29 03:26:13;;;;;;;4.70;1.67;;;;;;;;;;5049275;28;20124;-68
2022/01/29 03:28:39;;;;;;;2.90;1.20;;;;;;;;;;5048135;28;20045;-67
2022/01/29 03:31:05;;;;;;;9.15;2.20;;;;;;;;;;5049378;28;20107;-67
2022/01/29 03:33:31;;;;;;;6.75;1.73;;;;;;;;;;5048948;28;20052;-68
2022/01/29 03:35:57;;;;;;;6.13;1.73;;;;;;;;;;5047779;28;20076;-68
2022/01/29 03:38:24;;;;;;;5.50;1.60;;;;;;;;;;5049105;28;20048;-68
2022/01/29 03:40:51;;;;;;;2.95;1.42;;;;;;;;;;5047472;28;20053;-68
2022/01/29 03:43:26;;;;;;;5.15;1.90;;;;;;;;;;5048979;28;20447;-68
2022/01/29 03:45:52;;;;;;;5.18;1.83;;;;;;;;;;5049025;28;20067;-68
2022/01/29 03:48:18;;;;;;;5.50;1.40;;;;;;;;;;5047849;28;20118;-68
2022/01/29 03:50:44;;;;;;;4.15;1.65;;;;;;;;;;5049186;28;20036;-68
2022/01/29 03:53:10;;;;;;;5.88;1.40;;;;;;;;;;5048846;28;20056;-68
2022/01/29 03:55:36;;;;;;;5.40;1.80;;;;;;;;;;5048378;28;20505;-68
2022/01/29 03:58:02;;;;;;;3.13;1.50;;;;;;;;;;5047680;28;20072;-68
2022/01/29 04:00:28;;;;;;;5.97;1.75;;;;;;;;;;5049124;28;20557;-68
2022/01/29 04:02:54;;;;;;;3.47;1.33;;;;;;;;;;5049428;28;20053;-68
2022/01/29 04:05:20;;;;;;;4.72;1.65;;;;;;;;;;5049594;28;20053;-68
2022/01/29 04:07:46;;;;;;;5.15;1.77;;;;;;;;;;5048913;28;20048;-69
2022/01/29 04:10:13;;;;;;;4.13;1.73;;;;;;;;;;5049159;28;20049;-68
2022/01/29 04:12:45;;;;;;;4.75;1.90;;;;;;;;;;5048758;28;20059;-68
2022/01/29 04:15:11;;;;;;;5.13;1.80;;;;;;;;;;5048804;28;20550;-69
2022/01/29 04:17:37;;;;;;;5.60;1.83;;;;;;;;;;5048815;28;20048;-68
2022/01/29 04:20:04;;;;;;;10.45;1.77;;;;;;;;;;5049118;28;20049;-68
2022/01/29 04:22:30;;;;;;;7.07;1.60;;;;;;;;;;5047447;28;20403;-68
2022/01/29 04:24:56;;;;;;;6.45;1.70;;;;;;;;;;5048777;28;20045;-68
2022/01/29 04:27:32;;;;;;;5.43;1.75;;;;;;;;;;5048529;28;20072;-68
2022/01/29 04:30:00;;;;;;;5.82;1.42;;;;;;;;;;5047783;28;20136;-68
2022/01/29 04:33:23;;;;;;;10.38;1.80;;;;;;;;;;5046570;28;20061;-68
2022/01/29 04:35:13;;;;;;;6.88;1.92;;;;;;;;;;5043837;28;20217;-67
2022/01/29 04:37:39;;;;;;;6.78;1.73;;;;;;;;;;5046080;28;20095;-67
2022/01/29 04:40:05;;;;;;;4.18;1.55;;;;;;;;;;5047753;28;20040;-68
2022/01/29 04:42:31;;;;;;;4.18;1.67;;;;;;;;;;5048002;28;20040;-68
2022/01/29 04:44:57;;;;;;;5.15;1.33;;;;;;;;;;5047697;28;20087;-68
2022/01/29 04:47:23;;;;;;;4.13;1.58;;;;;;;;;;5046002;28;20051;-68
2022/01/29 04:49:49;;;;;;;8.05;1.98;;;;;;;;;;5048113;28;20045;-68
2022/01/29 04:52:15;;;;;;;4.72;1.73;;;;;;;;;;5047895;28;20037;-68
2022/01/29 04:54:41;;;;;;;5.30;1.50;;;;;;;;;;5047335;28;20410;-68
2022/01/29 04:57:07;;;;;;;4.35;1.85;;;;;;;;;;5047528;28;20191;-67
2022/01/29 04:59:33;;;;;;;8.30;1.92;;;;;;;;;;5047192;28;20131;-66
2022/01/29 05:01:59;;;;;;;4.45;1.50;;;;;;;;;;5047510;28;20053;-66
2022/01/29 05:04:25;;;;;;;3.58;1.50;;;;;;;;;;5047534;28;20509;-66
2022/01/29 05:06:51;;;;;;;5.28;1.92;;;;;;;;;;5047742;28;20044;-66
2022/01/29 05:09:18;;;;;;;4.18;1.52;;;;;;;;;;5047597;28;20068;-66
2022/01/29 05:11:47;;;;;;;4.72;1.67;;;;;;;;;;5046723;28;20147;-66
2022/01/29 05:14:23;;;;;;;3.78;1.52;;;;;;;;;;5047144;28;20053;-66
2022/01/29 05:27:49;;;;;;;4.43;1.67;;;;;;;;;;5048374;28;20060;-66
2022/01/29 05:30:15;;;;;;;5.25;1.48;;;;;;;;;;5048154;28;20045;-66
2022/01/29 05:32:41;;;;;;;4.80;1.35;;;;;;;;;;5047560;28;20368;-66
2022/01/29 05:35:07;;;;;;;3.70;1.30;;;;;;;;;;5047564;28;20507;-66
2022/01/29 05:37:33;;;;;;;3.00;1.50;;;;;;;;;;5048076;28;20356;-66
2022/01/29 05:39:59;;;;;;;4.93;1.80;;;;;;;;;;5047928;28;20041;-66
2022/01/29 05:42:25;;;;;;;3.72;1.60;;;;;;;;;;5047695;28;20056;-66
2022/01/29 05:44:51;;;;;;;2.33;1.10;;;;;;;;;;5047954;28;20121;-67
2022/01/29 05:47:17;;;;;;;5.35;1.80;;;;;;;;;;5046508;28;20517;-66
2022/01/29 05:49:43;;;;;;;3.17;1.27;;;;;;;;;;5047921;28;20060;-66
2022/01/29 05:52:09;;;;;;;2.67;1.48;;;;;;;;;;5051457;28;20063;-66
2022/01/29 05:54:35;;;;;;;6.18;1.73;;;;;;;;;;5050810;28;20131;-69
2022/01/29 05:57:01;;;;;;;5.72;1.45;;;;;;;;;;5051877;28;20470;-69
2022/01/29 05:59:27;;;;;;;8.57;1.60;;;;;;;;;;5051725;28;20045;-68
2022/01/29 06:01:53;;;;;;;9.35;1.73;;;;;;;;;;5050385;28;20128;-68
2022/01/29 06:04:19;;;;;;;4.72;1.83;;;;;;;;;;5051577;28;20162;-70
2022/01/29 06:06:45;;;;;;;3.33;1.33;;;;;;;;;;5051261;28;20438;-67
2022/01/29 06:09:11;;;;;;;5.03;1.77;;;;;;;;;;5050513;28;20463;-67
2022/01/29 06:11:37;;;;;;;4.20;1.50;;;;;;;;;;5051608;28;20339;-68
2022/01/29 06:14:03;;;;;;;6.60;1.38;;;;;;;;;;5050646;28;20052;-67
2022/01/29 06:16:30;;;;;;;4.30;1.58;;;;;;;;;;5049385;28;20045;-66
2022/01/29 06:18:56;;;;;;;5.20;1.40;;;;;;;;;;5049323;28;20529;-67
2022/01/29 06:21:22;;;;;;;3.80;1.52;;;;;;;;;;5050219;28;20052;-66
2022/01/29 06:23:48;;;;;;;8.07;1.40;;;;;;;;;;5050568;28;20053;-67
2022/01/29 06:26:16;;;;;;;3.50;1.25;;;;;;;;;;5050591;28;20410;-67
2022/01/29 06:28:42;;;;;;;5.85;1.70;;;;;;;;;;5053594;28;20547;-67
2022/01/29 06:31:09;;;;;;;6.05;1.70;;;;;;;;;;5069900;28;20067;-67
2022/01/29 06:33:35;;;;;;;3.55;1.40;;;;;;;;;;5069944;28;20142;-67
2022/01/29 06:36:01;;;;;;;4.82;1.23;;;;;;;;;;5070145;28;20491;-67
2022/01/29 06:38:27;;;;;;;5.20;1.67;;;;;;;;;;5069826;28;20057;-67
2022/01/29 06:40:53;;;;;;;3.83;1.60;;;;;;;;;;5070220;28;20248;-67
2022/01/29 06:43:19;;;;;;;2.88;1.15;;;;;;;;;;5070187;28;20102;-67
2022/01/29 06:45:46;;;;;;;4.57;1.10;;;;;;;;;;5069822;28;20044;-66
2022/01/29 06:48:13;;;;;;;3.38;1.50;;;;;;;;;;5070556;28;20399;-67
2022/01/29 06:50:39;;;;;;;3.08;1.15;;;;;;;;;;5069515;28;20186;-67
2022/01/29 06:53:06;;;;;;;5.30;2.08;;;;;;;;;;5068892;28;20078;-67
2022/01/29 06:55:32;;;;;;;4.07;1.40;;;;;;;;;;5070302;28;20063;-67
2022/01/29 06:57:58;;;;;;;6.60;2.15;;;;;;;;;;5070725;28;20044;-67
2022/01/29 07:00:24;;;;;;;3.47;1.50;;;;;;;;;;5070337;28;20048;-68
2022/01/29 07:02:50;;;;;;;13.43;1.48;;;;;;;;;;5070366;28;20067;-67
2022/01/29 07:05:17;;;;;;;5.63;1.65;;;;;;;;;;5070043;28;20799;-68
2022/01/29 07:07:43;;;;;;;9.88;1.92;;;;;;;;;;5070360;28;20127;-68
2022/01/29 07:10:09;;;;;;;4.53;1.25;;;;;;;;;;5070144;28;20052;-67
2022/01/29 07:12:40;;;;;;;3.92;1.42;;;;;;;;;;5068921;28;20048;-67
2022/01/29 07:15:10;;;;;;;4.05;1.25;;;;;;;;;;5069289;28;20503;-67
2022/01/29 07:17:36;;;;;;;4.53;1.30;;;;;;;;;;5070035;28;20043;-67
2022/01/29 07:20:03;;;;;;;6.30;1.40;;;;;;;;;;5070075;28;20036;-67
2022/01/29 07:22:29;;;;;;;4.97;1.40;;;;;;;;;;5069877;28;20040;-67
2022/01/29 07:24:55;;;;;;;8.25;1.80;;;;;;;;;;5069579;28;20048;-67
2022/01/29 07:27:21;;;;;;;6.20;1.20;;;;;;;;;;5069793;28;20083;-67
2022/01/29 07:29:47;;;;;;;4.63;1.65;;;;;;;;;;5068150;28;20101;-67
2022/01/29 07:32:14;;;;;;;6.22;1.30;;;;;;;;;;5069611;28;20056;-67
2022/01/29 07:34:40;;;;;;;4.85;1.40;;;;;;;;;;5069488;28;20143;-68
2022/01/29 07:37:06;;;;;;;5.05;1.27;;;;;;;;;;5069533;28;20045;-68
2022/01/29 07:39:33;;;;;;;5.82;1.52;;;;;;;;;;5069417;28;20047;-67
2022/01/29 07:41:59;;;;;;;4.82;1.55;;;;;;;;;;5069687;28;20048;-67
2022/01/29 07:44:25;;;;;;;6.05;1.10;;;;;;;;;;5069788;28;20044;-67
2022/01/29 07:46:51;;;;;;;3.80;1.52;;;;;;;;;;5069349;28;20045;-67
2022/01/29 07:49:17;;;;;;;3.53;1.50;;;;;;;;;;5069017;28;20414;-67
2022/01/29 07:51:43;;;;;;;4.47;1.30;;;;;;;;;;5069302;28;20490;-66
2022/01/29 07:54:10;;;;;;;4.75;1.35;;;;;;;;;;5067953;28;20588;-67
2022/01/29 07:56:36;;;;;;;2.95;1.20;;;;;;;;;;5069545;28;20041;-66
2022/01/29 07:59:05;;;;;;;3.28;1.20;;;;;;;;;;5068717;28;20063;-68
2022/01/29 08:01:31;;;;;;;21.42;2.28;;;;;;;;;;5069255;28;20102;-67
2022/01/29 08:03:57;;;;;;;7.38;1.40;;;;;;;;;;5069360;28;20044;-67
2022/01/29 08:06:26;;;;;;;6.20;1.42;;;;;;;;;;5069371;28;20094;-66
2022/01/29 08:08:52;;;;;;;19.80;1.95;;;;;;;;;;5068028;28;20530;-66
2022/01/29 08:11:18;;;;;;;3.80;1.15;;;;;;;;;;5068542;28;20330;-66
2022/01/29 08:13:46;;;;;;;4.43;1.25;;;;;;;;;;5068735;28;20170;-67
2022/01/29 08:16:13;;;;;;;8.95;1.55;;;;;;;;;;5067709;28;20512;-67
2022/01/29 08:18:41;;;;;;;6.20;1.75;;;;;;;;;;5068202;28;20053;-66
2022/01/29 08:21:07;;;;;;;7.68;1.50;;;;;;;;;;5069096;28;20360;-67
2022/01/29 08:23:33;;;;;;;5.45;1.23;;;;;;;;;;5068577;28;20123;-66
2022/01/29 08:25:59;;;;;;;6.75;1.92;;;;;;;;;;5068653;28;20550;-66
2022/01/29 08:28:25;;;;;;;12.85;2.15;;;;;;;;;;5068063;28;20495;-66
2022/01/29 08:30:51;;;;;;;4.68;1.60;;;;;;;;;;5067369;28;20137;-66
2022/01/29 08:33:18;;;;;;;4.50;1.45;;;;;;;;;;5067025;28;20056;-66
2022/01/29 08:35:46;;;;;;;6.38;1.55;;;;;;;;;;5068107;28;20138;-66
2022/01/29 08:38:12;;;;;;;6.50;1.60;;;;;;;;;;5067967;28;20553;-67
2022/01/29 08:40:38;;;;;;;6.45;1.70;;;;;;;;;;5068385;28;20051;-66
2022/01/29 08:43:04;;;;;;;3.80;1.27;;;;;;;;;;5068480;28;20103;-66
2022/01/29 08:45:30;;;;;;;3.70;1.70;;;;;;;;;;5067210;28;20044;-66
2022/01/29 08:47:56;;;;;;;4.28;1.52;;;;;;;;;;5068348;28;20037;-66
2022/01/29 08:50:22;;;;;;;5.10;1.10;;;;;;;;;;5068257;28;20122;-67
2022/01/29 08:52:48;;;;;;;4.10;1.10;;;;;;;;;;5068290;28;20048;-69
2022/01/29 08:55:14;;;;;;;5.43;1.92;;;;;;;;;;5068282;28;20428;-68
2022/01/29 08:57:41;;;;;;;6.63;1.63;;;;;;;;;;5068311;28;20409;-67
2022/01/29 09:00:08;;;;;;;5.50;1.15;;;;;;;;;;5068004;28;20048;-68
2022/01/29 09:02:34;;;;;;;6.57;1.27;;;;;;;;;;5068510;28;20044;-70
2022/01/29 09:05:00;;;;;;;5.57;1.20;;;;;;;;;;5068136;28;20040;-68
2022/01/29 09:07:26;;;;;;;2.88;1.13;;;;;;;;;;5068198;28;20045;-70
2022/01/29 09:09:53;;;;;;;3.50;1.42;;;;;;;;;;5067897;28;20446;-70
2022/01/29 09:12:20;;;;;;;6.25;1.10;;;;;;;;;;5068177;28;20127;-70
2022/01/29 09:14:46;;;;;;;2.60;1.20;;;;;;;;;;5061624;28;20083;-69
2022/01/29 09:17:12;;;;;;;2.35;1.10;;;;;;;;;;5064153;28;20491;-69
2022/01/29 09:19:38;;;;;;;4.18;1.27;;;;;;;;;;5053296;28;20118;-69
2022/01/29 09:22:04;;;;;;;2.75;0.98;;;;;;;;;;5048703;28;20053;-69
2022/01/29 09:24:31;;;;;;;3.92;1.33;;;;;;;;;;5049005;28;20041;-70
2022/01/29 09:26:57;;;;;;;5.00;1.25;;;;;;;;;;5071877;28;20048;-70
2022/01/29 09:29:23;;;;;;;3.53;1.55;;;;;;;;;;5072285;28;20084;-69
2022/01/29 09:31:49;;;;;;;5.38;1.52;;;;;;;;;;5072013;28;20059;-69
2022/01/29 09:34:15;;;;;;;2.45;0.90;;;;;;;;;;5072864;28;20060;-70
2022/01/29 09:36:41;;;;;;;3.63;1.02;;;;;;;;;;5071256;28;20839;-70
2022/01/29 09:39:07;;;;;;;3.13;1.33;;;;;;;;;;5056936;28;20487;-70
2022/01/29 09:41:36;;;;;;;2.58;0.90;;;;;;;;;;5053280;28;20636;-69
2022/01/29 09:44:02;;;;;;;3.97;1.30;;;;;;;;;;5063267;28;20060;-69
2022/01/29 09:46:30;;;;;;;2.70;0.90;;;;;;;;;;5071426;28;20047;-69
2022/01/29 09:48:56;;;;;;;3.33;0.93;;;;;;;;;;5070337;28;20060;-68
2022/01/29 09:51:22;;;;;;;2.70;1.13;;;;;;;;;;5071825;28;20045;-70
2022/01/29 09:53:48;;;;;;;2.97;1.17;;;;;;;;;;5072150;28;20410;-69
2022/01/29 09:56:15;;;;;;;3.33;1.25;;;;;;;;;;5071281;28;20048;-69
2022/01/29 09:58:42;;;;;;;2.60;1.35;;;;;;;;;;5053552;28;20109;-70
2022/01/29 10:01:08;;;;;;;2.50;1.40;;;;;;;;;;5071831;28;20036;-70
2022/01/29 10:03:35;;;;;;;3.70;1.40;;;;;;;;;;5070807;28;20040;-70
2022/01/29 10:06:02;;;;;;;4.78;1.30;;;;;;;;;;5071054;28;20080;-70
2022/01/29 10:08:29;;;;;;;3.08;1.50;;;;;;;;;;5071733;28;20123;-70
2022/01/29 10:10:56;;;;;;;4.85;1.45;;;;;;;;;;5071163;28;20433;-69
2022/01/29 10:13:35;;;;;;;8.30;1.52;;;;;;;;;;5070767;28;20080;-70
2022/01/29 10:16:12;;;;;;;4.78;1.50;;;;;;;;;;5070636;28;20510;-71
2022/01/29 10:18:42;;;;;;;2.40;1.30;;;;;;;;;;5061239;28;20135;-70
2022/01/29 10:21:08;;;;;;;5.65;1.73;;;;;;;;;;5070673;28;20131;-70
2022/01/29 10:23:34;;;;;;;8.35;1.52;;;;;;;;;;5070934;28;20098;-72
2022/01/29 10:26:02;;;;;;;4.13;1.73;;;;;;;;;;5070629;28;20044;-70
2022/01/29 10:28:28;;;;;;;4.55;1.55;;;;;;;;;;5070049;28;20059;-71
2022/01/29 10:30:54;;;;;;;4.10;1.40;;;;;;;;;;5070829;28;20571;-70
2022/01/29 10:33:24;;;;;;;5.30;1.52;;;;;;;;;;5069650;28;20057;-70
2022/01/29 10:35:54;;;;;;;4.03;1.20;;;;;;;;;;5070753;28;20060;-71
2022/01/29 10:38:24;;;;;;;8.13;1.70;;;;;;;;;;5070840;28;20114;-70
2022/01/29 10:41:10;;;;;;;6.78;2.47;;;;;;;;;;5070898;28;20447;-73
2022/01/29 10:43:37;;;;;;;3.13;1.40;;;;;;;;;;5056227;28;20044;-70
2022/01/29 10:46:03;;;;;;;5.68;2.00;;;;;;;;;;5050730;28;20495;-71
2022/01/29 10:48:42;;;;;;;4.00;1.60;;;;;;;;;;5051561;28;20037;-71
2022/01/29 10:51:12;;;;;;;4.57;1.92;;;;;;;;;;5049635;28;20056;-71
2022/01/29 10:53:38;;;;;;;4.95;1.98;;;;;;;;;;5050880;28;20734;-71
2022/01/29 10:56:04;;;;;;;4.68;1.55;;;;;;;;;;5050630;28;20052;-69
2022/01/29 10:58:30;;;;;;;6.97;1.60;;;;;;;;;;5050227;28;20044;-71
2022/01/29 11:01:13;;;;;;;5.07;1.77;;;;;;;;;;5051581;28;20041;-70
2022/01/29 11:03:39;;;;;;;5.70;1.63;;;;;;;;;;5069217;28;20048;-70
2022/01/29 11:06:08;;;;;;;5.10;1.50;;;;;;;;;;5070394;28;20477;-70
2022/01/29 11:08:34;;;;;;;3.72;1.42;;;;;;;;;;5069006;28;20066;-70
2022/01/29 11:11:00;;;;;;;4.82;1.50;;;;;;;;;;5069843;28;20094;-71
2022/01/29 11:13:26;;;;;;;6.00;1.60;;;;;;;;;;5070119;28;20053;-70
2022/01/29 11:15:53;;;;;;;2.78;1.08;;;;;;;;;;5068791;28;20048;-71
2022/01/29 11:18:19;;;;;;;4.18;1.67;;;;;;;;;;5070126;28;20040;-70
2022/01/29 11:20:46;;;;;;;4.70;1.45;;;;;;;;;;5068400;28;20048;-71
2022/01/29 11:23:12;;;;;;;4.20;1.30;;;;;;;;;;5051146;28;20045;-71
2022/01/29 11:25:38;;;;;;;4.95;1.60;;;;;;;;;;5050410;28;20045;-70
2022/01/29 11:28:15;;;;;;;4.57;1.35;;;;;;;;;;5050411;28;20045;-70
2022/01/29 11:30:43;;;;;;;13.57;1.75;;;;;;;;;;5050434;28;20147;-68
2022/01/29 11:33:09;;;;;;;7.10;1.58;;;;;;;;;;5049555;28;20057;-68
2022/01/29 11:35:50;;;;;;;11.75;1.38;;;;;;;;;;5049717;28;20514;-68
2022/01/29 11:38:27;;;;;;;4.97;1.30;;;;;;;;;;5049957;28;20045;-68
2022/01/29 11:41:01;;;;;;;7.88;1.63;;;;;;;;;;5049295;28;20110;-68
2022/01/29 11:43:33;;;;;;;9.90;1.70;;;;;;;;;;5048719;28;20383;-68
2022/01/29 11:46:05;;;;;;;5.68;1.40;;;;;;;;;;5049857;28;20523;-68
2022/01/29 11:48:37;;;;;;;3.70;1.42;;;;;;;;;;5048564;28;20055;-68
2022/01/29 11:51:11;;;;;;;4.78;1.63;;;;;;;;;;5049775;28;20053;-68
2022/01/29 11:53:47;;;;;;;7.78;1.20;;;;;;;;;;5048550;28;20060;-68
2022/01/29 11:56:29;;;;;;;7.90;1.75;;;;;;;;;;5056171;28;20044;-68
2022/01/29 11:59:14;;;;;;;5.32;1.23;;;;;;;;;;5069340;28;20053;-68
2022/01/29 12:01:40;;;;;;;4.55;1.20;;;;;;;;;;5069329;28;20056;-67
2022/01/29 12:04:07;;;;;;;4.68;0.90;;;;;;;;;;5069251;28;20048;-67
2022/01/29 12:06:36;;;;;;;3.20;1.02;;;;;;;;;;5068965;28;20040;-67
2022/01/29 12:09:05;;;;;;;3.85;1.00;;;;;;;;;;5069012;28;20083;-67
2022/01/29 12:11:32;;;;;;;3.70;1.20;;;;;;;;;;5067393;28;20603;-67
2022/01/29 12:14:13;;;;;;;5.28;1.33;;;;;;;;;;5067178;28;20127;-67
2022/01/29 12:16:49;;;;;;;3.40;1.10;;;;;;;;;;5067155;28;20081;-67
2022/01/29 12:19:33;;;;;;;6.68;1.50;;;;;;;;;;5067536;28;20040;-67
2022/01/29 12:22:00;;;;;;;4.55;1.50;;;;;;;;;;5069006;28;20045;-69
2022/01/29 12:24:26;;;;;;;4.13;1.00;;;;;;;;;;5068764;28;20063;-67
2022/01/29 12:26:56;;;;;;;8.02;2.13;;;;;;;;;;5068444;28;20502;-67
2022/01/29 12:29:23;;;;;;;5.70;1.27;;;;;;;;;;5069388;28;20070;-68
2022/01/29 12:31:53;;;;;;;5.50;1.45;;;;;;;;;;5068337;28;20058;-67
2022/01/29 12:34:21;;;;;;;5.95;1.55;;;;;;;;;;5068985;28;20502;-68
2022/01/29 12:36:47;;;;;;;5.10;1.48;;;;;;;;;;5067870;28;20056;-68
2022/01/29 12:39:24;;;;;;;6.03;1.40;;;;;;;;;;5068953;28;20071;-68
2022/01/29 12:44:44;;;;;;;5.55;1.30;;;;;;;;;;5065710;28;20044;-68
2022/01/29 12:47:23;;;;;;;3.67;1.20;;;;;;;;;;5053358;28;20051;-68
2022/01/29 12:49:49;;;;;;;3.10;1.10;;;;;;;;;;5048937;28;20067;-68
2022/01/29 12:52:17;;;;;;;3.70;1.20;;;;;;;;;;5048549;28;20499;-68
2022/01/29 12:54:59;;;;;;;2.85;1.15;;;;;;;;;;5066077;28;20171;-68
2022/01/29 12:57:26;;;;;;;3.05;1.02;;;;;;;;;;5067117;28;20045;-68
2022/01/29 12:59:52;;;;;;;4.30;1.08;;;;;;;;;;5067613;28;20044;-68
2022/01/29 13:02:22;;;;;;;4.40;1.33;;;;;;;;;;5068644;28;20044;-67
2022/01/29 13:04:48;;;;;;;2.47;0.90;;;;;;;;;;5068704;28;20056;-68
2022/01/29 13:07:17;;;;;;;2.50;0.70;;;;;;;;;;5066926;28;20055;-68
2022/01/29 13:09:43;;;;;;;4.95;1.10;;;;;;;;;;5068114;28;20052;-68
2022/01/29 13:12:12;;;;;;;5.22;1.20;;;;;;;;;;5054729;28;20045;-68
2022/01/29 13:14:38;;;;;;;3.63;1.35;;;;;;;;;;5048404;28;20580;-67
2022/01/29 13:17:06;;;;;;;6.00;1.13;;;;;;;;;;5046821;28;20045;-68
2022/01/29 13:19:32;;;;;;;3.58;1.33;;;;;;;;;;5048096;28;20059;-71
2022/01/29 13:21:59;;;;;;;2.53;0.93;;;;;;;;;;5048176;28;20041;-69
2022/01/29 13:24:25;;;;;;;4.25;1.05;;;;;;;;;;5048216;28;20245;-68
2022/01/29 13:27:06;;;;;;;3.97;1.20;;;;;;;;;;5048894;28;20172;-69
2022/01/29 13:29:33;;;;;;;7.28;1.15;;;;;;;;;;5047967;28;20041;-68
2022/01/29 13:32:04;;;;;;;7.07;1.20;;;;;;;;;;5049929;28;20060;-68
2022/01/29 13:34:43;;;;;;;3.92;1.55;;;;;;;;;;5067912;28;20087;-70
2022/01/29 13:37:28;;;;;;;4.13;1.10;;;;;;;;;;5068062;28;20159;-68
2022/01/29 13:39:54;;;;;;;4.32;1.58;;;;;;;;;;5068173;28;20059;-68
2022/01/29 13:42:21;;;;;;;6.65;0.95;;;;;;;;;;5053971;28;20055;-69
2022/01/29 13:45:06;;;;;;;2.88;0.93;;;;;;;;;;5059310;28;20037;-70
2022/01/29 13:47:36;;;;;;;5.00;0.93;;;;;;;;;;5048133;28;20041;-68
2022/01/29 13:50:20;;;;;;;3.47;1.15;;;;;;;;;;5047669;28;20184;-69
2022/01/29 13:52:58;;;;;;;2.92;1.05;;;;;;;;;;5048062;28;20092;-69
2022/01/29 13:55:24;;;;;;;4.40;1.00;;;;;;;;;;5047097;28;20518;-69
2022/01/29 13:58:04;;;;;;;3.45;0.90;;;;;;;;;;5048316;28;20041;-67
2022/01/29 14:00:50;;;;;;;3.00;0.90;;;;;;;;;;5048153;28;20053;-69
2022/01/29 14:03:16;;;;;;;3.55;1.27;;;;;;;;;;5048227;28;20048;-69
2022/01/29 14:05:42;;;;;;;3.67;1.20;;;;;;;;;;5048058;28;20045;-70
2022/01/29 14:08:16;;;;;;;4.15;1.00;;;;;;;;;;5047982;28;20547;-70
2022/01/29 14:10:42;;;;;;;4.07;1.38;;;;;;;;;;5047293;28;20051;-69
2022/01/29 14:13:08;;;;;;;5.35;1.67;;;;;;;;;;5051444;28;20051;-69
2022/01/29 14:15:35;;;;;;;5.40;1.17;;;;;;;;;;5051537;28;20060;-68
2022/01/29 14:18:01;;;;;;;3.05;0.90;;;;;;;;;;5051394;28;20128;-69
2022/01/29 14:20:27;;;;;;;4.35;1.20;;;;;;;;;;5052033;28;20041;-69
2022/01/29 14:22:53;;;;;;;2.80;1.13;;;;;;;;;;5051493;28;20533;-66
2022/01/29 14:25:21;;;;;;;3.72;1.23;;;;;;;;;;5051151;28;20045;-67
2022/01/29 14:27:47;;;;;;;2.75;1.08;;;;;;;;;;5051180;28;20138;-67
2022/01/29 14:30:13;;;;;;;4.00;0.88;;;;;;;;;;5050847;28;20049;-67
2022/01/29 14:32:43;;;;;;;3.83;1.10;;;;;;;;;;5050943;28;20061;-68
2022/01/29 14:35:13;;;;;;;4.18;1.02;;;;;;;;;;5050988;28;20060;-67
2022/01/29 14:37:39;;;;;;;3.78;1.33;;;;;;;;;;5050382;28;20041;-67
2022/01/29 14:40:09;;;;;;;3.95;1.10;;;;;;;;;;5051143;28;20045;-67
2022/01/29 14:42:36;;;;;;;4.30;1.17;;;;;;;;;;5050117;28;20060;-67
2022/01/29 14:45:02;;;;;;;4.78;1.55;;;;;;;;;;5066201;28;20052;-67
2022/01/29 14:47:29;;;;;;;2.95;1.23;;;;;;;;;;5069443;28;20080;-69
2022/01/29 14:49:57;;;;;;;3.83;1.15;;;;;;;;;;5052587;28;20040;-69
2022/01/29 14:52:23;;;;;;;4.55;1.13;;;;;;;;;;5069022;28;20045;-67
2022/01/29 14:54:50;;;;;;;3.83;1.00;;;;;;;;;;5069375;28;20055;-68
2022/01/29 14:57:16;;;;;;;4.43;1.23;;;;;;;;;;5069426;28;20055;-71
2022/01/29 14:59:42;;;;;;;4.95;1.20;;;;;;;;;;5069570;28;20446;-70